sensor_id;sensor_type;location;lat;lon;timestamp;P1;durP1;ratioP1;P2;durP2;ratioP2
5959;SDS011;3006;50.956;7.002;2022-12-01T00:01:25;13.00;;;9.37;;
5959;SDS011;3006;50.956;7.002;2022-12-01T00:03:55;15.43;;;10.33;;
5959;SDS011;3006;50.956;7.002;2022-12-01T00:06:24;14.30;;;10.20;;
5959;SDS011;3006;50.956;7.002;2022-12-01T00:08:53;13.33;;;9.80;;
5959;SDS011;3006;50.956;7.002;2022-12-01T00:11:45;14.73;;;9.53;;
5959;SDS011;3006;50.956;7.002;2022-12-01T00:14:14;15.80;;;11.10;;
5959;SDS011;3006;50.956;7.002;2022-12-01T00:16:42;14.20;;;10.00;;
5959;SDS011;3006;50.956;7.002;2022-12-01T00:19:11;16.40;;;10.70;;
5959;SDS011;3006;50.956;7.002;2022-12-01T00:21:39;15.60;;;10.60;;
5959;SDS011;3006;50.956;7.002;2022-12-01T00:24:09;15.70;;;11.17;;
5959;SDS011;3006;50.956;7.002;2022-12-01T00:26:37;15.07;;;11.10;;
5959;SDS011;3006;50.956;7.002;2022-12-01T00:29:06;14.80;;;11.17;;
5959;SDS011;3006;50.956;7.002;2022-12-01T00:31:35;19.10;;;12.13;;
5959;SDS011;3006;50.956;7.002;2022-12-01T00:34:03;16.00;;;11.50;;
5959;SDS011;3006;50.956;7.002;2022-12-01T00:36:37;17.83;;;11.87;;
5959;SDS011;3006;50.956;7.002;2022-12-01T00:39:05;18.27;;;11.60;;
5959;SDS011;3006;50.956;7.002;2022-12-01T00:41:34;20.87;;;11.53;;
5959;SDS011;3006;50.956;7.002;2022-12-01T00:44:03;15.13;;;11.27;;
5959;SDS011;3006;50.956;7.002;2022-12-01T00:46:31;16.00;;;11.80;;
5959;SDS011;3006;50.956;7.002;2022-12-01T00:48:59;23.03;;;13.57;;
5959;SDS011;3006;50.956;7.002;2022-12-01T00:51:27;18.13;;;12.47;;
5959;SDS011;3006;50.956;7.002;2022-12-01T00:53:55;17.20;;;12.73;;
5959;SDS011;3006;50.956;7.002;2022-12-01T00:56:24;16.03;;;11.27;;
5959;SDS011;3006;50.956;7.002;2022-12-01T00:58:53;17.30;;;11.70;;
5959;SDS011;3006;50.956;7.002;2022-12-01T01:01:21;15.17;;;10.77;;
5959;SDS011;3006;50.956;7.002;2022-12-01T01:03:50;16.03;;;11.93;;
5959;SDS011;3006;50.956;7.002;2022-12-01T01:06:18;15.07;;;10.20;;
5959;SDS011;3006;50.956;7.002;2022-12-01T01:08:46;16.00;;;10.97;;
5959;SDS011;3006;50.956;7.002;2022-12-01T01:11:14;17.73;;;11.97;;
5959;SDS011;3006;50.956;7.002;2022-12-01T01:13:42;15.87;;;11.77;;
5959;SDS011;3006;50.956;7.002;2022-12-01T01:16:12;17.83;;;12.73;;
5959;SDS011;3006;50.956;7.002;2022-12-01T01:18:42;18.10;;;13.17;;
5959;SDS011;3006;50.956;7.002;2022-12-01T01:21:11;14.63;;;11.40;;
5959;SDS011;3006;50.956;7.002;2022-12-01T01:23:40;19.83;;;13.30;;
5959;SDS011;3006;50.956;7.002;2022-12-01T01:26:11;21.60;;;13.50;;
5959;SDS011;3006;50.956;7.002;2022-12-01T01:28:42;22.37;;;13.67;;
5959;SDS011;3006;50.956;7.002;2022-12-01T01:31:13;20.20;;;13.77;;
5959;SDS011;3006;50.956;7.002;2022-12-01T01:33:43;24.53;;;14.63;;
5959;SDS011;3006;50.956;7.002;2022-12-01T01:36:11;18.50;;;13.73;;
5959;SDS011;3006;50.956;7.002;2022-12-01T01:38:40;21.00;;;14.53;;
5959;SDS011;3006;50.956;7.002;2022-12-01T01:41:08;21.77;;;15.10;;
5959;SDS011;3006;50.956;7.002;2022-12-01T01:43:38;21.30;;;14.00;;
5959;SDS011;3006;50.956;7.002;2022-12-01T01:46:09;23.00;;;15.30;;
5959;SDS011;3006;50.956;7.002;2022-12-01T01:48:39;22.33;;;14.53;;
5959;SDS011;3006;50.956;7.002;2022-12-01T01:51:10;21.07;;;13.90;;
5959;SDS011;3006;50.956;7.002;2022-12-01T01:53:41;28.27;;;16.30;;
5959;SDS011;3006;50.956;7.002;2022-12-01T01:56:11;20.10;;;14.77;;
5959;SDS011;3006;50.956;7.002;2022-12-01T01:58:40;20.40;;;13.90;;
5959;SDS011;3006;50.956;7.002;2022-12-01T02:01:08;24.13;;;14.70;;
5959;SDS011;3006;50.956;7.002;2022-12-01T02:03:37;25.30;;;16.77;;
5959;SDS011;3006;50.956;7.002;2022-12-01T02:06:08;24.43;;;15.10;;
5959;SDS011;3006;50.956;7.002;2022-12-01T02:08:37;26.07;;;16.17;;
5959;SDS011;3006;50.956;7.002;2022-12-01T02:14:17;27.03;;;16.83;;
5959;SDS011;3006;50.956;7.002;2022-12-01T02:17:08;23.43;;;15.23;;
5959;SDS011;3006;50.956;7.002;2022-12-01T02:19:50;31.67;;;17.13;;
5959;SDS011;3006;50.956;7.002;2022-12-01T02:22:39;25.57;;;16.50;;
5959;SDS011;3006;50.956;7.002;2022-12-01T02:25:21;30.50;;;17.40;;
5959;SDS011;3006;50.956;7.002;2022-12-01T02:30:53;28.27;;;17.77;;
5959;SDS011;3006;50.956;7.002;2022-12-01T02:33:25;34.43;;;18.00;;
5959;SDS011;3006;50.956;7.002;2022-12-01T02:35:59;30.93;;;18.17;;
5959;SDS011;3006;50.956;7.002;2022-12-01T02:38:32;37.30;;;20.40;;
5959;SDS011;3006;50.956;7.002;2022-12-01T02:41:07;31.37;;;18.07;;
5959;SDS011;3006;50.956;7.002;2022-12-01T02:43:39;32.50;;;20.07;;
5959;SDS011;3006;50.956;7.002;2022-12-01T02:46:12;30.87;;;19.67;;
5959;SDS011;3006;50.956;7.002;2022-12-01T02:48:45;33.63;;;20.60;;
5959;SDS011;3006;50.956;7.002;2022-12-01T02:51:18;31.53;;;18.60;;
5959;SDS011;3006;50.956;7.002;2022-12-01T02:53:49;30.63;;;19.40;;
5959;SDS011;3006;50.956;7.002;2022-12-01T02:56:19;31.57;;;17.53;;
5959;SDS011;3006;50.956;7.002;2022-12-01T02:58:48;31.90;;;18.87;;
5959;SDS011;3006;50.956;7.002;2022-12-01T03:01:29;29.33;;;18.13;;
5959;SDS011;3006;50.956;7.002;2022-12-01T03:04:18;32.40;;;16.77;;
5959;SDS011;3006;50.956;7.002;2022-12-01T03:06:58;24.10;;;15.87;;
5959;SDS011;3006;50.956;7.002;2022-12-01T03:09:44;25.30;;;17.27;;
5959;SDS011;3006;50.956;7.002;2022-12-01T03:12:19;24.17;;;16.33;;
5959;SDS011;3006;50.956;7.002;2022-12-01T03:14:55;25.40;;;16.47;;
5959;SDS011;3006;50.956;7.002;2022-12-01T03:17:33;24.47;;;15.37;;
5959;SDS011;3006;50.956;7.002;2022-12-01T03:20:09;26.90;;;17.20;;
5959;SDS011;3006;50.956;7.002;2022-12-01T03:22:42;25.17;;;17.47;;
5959;SDS011;3006;50.956;7.002;2022-12-01T03:25:15;31.20;;;18.33;;
5959;SDS011;3006;50.956;7.002;2022-12-01T03:27:44;28.27;;;19.40;;
5959;SDS011;3006;50.956;7.002;2022-12-01T03:30:35;34.40;;;20.17;;
5959;SDS011;3006;50.956;7.002;2022-12-01T03:33:08;29.17;;;18.77;;
5959;SDS011;3006;50.956;7.002;2022-12-01T03:35:40;28.50;;;17.77;;
5959;SDS011;3006;50.956;7.002;2022-12-01T03:38:13;30.90;;;19.00;;
5959;SDS011;3006;50.956;7.002;2022-12-01T03:40:46;26.30;;;17.60;;
5959;SDS011;3006;50.956;7.002;2022-12-01T03:43:18;33.10;;;18.63;;
5959;SDS011;3006;50.956;7.002;2022-12-01T03:45:51;30.97;;;18.93;;
5959;SDS011;3006;50.956;7.002;2022-12-01T03:48:23;25.87;;;16.23;;
5959;SDS011;3006;50.956;7.002;2022-12-01T03:50:55;29.43;;;17.90;;
5959;SDS011;3006;50.956;7.002;2022-12-01T03:53:32;30.00;;;17.23;;
5959;SDS011;3006;50.956;7.002;2022-12-01T03:56:09;31.00;;;18.13;;
5959;SDS011;3006;50.956;7.002;2022-12-01T03:58:39;26.60;;;16.97;;
5959;SDS011;3006;50.956;7.002;2022-12-01T04:01:11;27.77;;;17.10;;
5959;SDS011;3006;50.956;7.002;2022-12-01T04:03:40;29.00;;;17.53;;
5959;SDS011;3006;50.956;7.002;2022-12-01T04:06:11;28.83;;;16.77;;
5959;SDS011;3006;50.956;7.002;2022-12-01T04:08:40;26.73;;;17.83;;
5959;SDS011;3006;50.956;7.002;2022-12-01T04:11:08;29.60;;;18.30;;
5959;SDS011;3006;50.956;7.002;2022-12-01T04:13:57;32.77;;;18.97;;
5959;SDS011;3006;50.956;7.002;2022-12-01T04:16:25;28.60;;;17.17;;
5959;SDS011;3006;50.956;7.002;2022-12-01T04:18:55;31.57;;;18.10;;
5959;SDS011;3006;50.956;7.002;2022-12-01T04:21:23;61.47;;;35.13;;
5959;SDS011;3006;50.956;7.002;2022-12-01T04:23:51;33.37;;;19.60;;
5959;SDS011;3006;50.956;7.002;2022-12-01T04:26:28;36.70;;;19.73;;
5959;SDS011;3006;50.956;7.002;2022-12-01T04:28:58;40.00;;;20.77;;
5959;SDS011;3006;50.956;7.002;2022-12-01T04:31:27;32.33;;;18.50;;
5959;SDS011;3006;50.956;7.002;2022-12-01T04:33:57;33.13;;;18.63;;
5959;SDS011;3006;50.956;7.002;2022-12-01T04:36:26;38.03;;;20.50;;
5959;SDS011;3006;50.956;7.002;2022-12-01T04:38:56;35.43;;;21.50;;
5959;SDS011;3006;50.956;7.002;2022-12-01T04:41:24;37.87;;;21.00;;
5959;SDS011;3006;50.956;7.002;2022-12-01T04:43:52;40.67;;;22.80;;
5959;SDS011;3006;50.956;7.002;2022-12-01T04:46:21;33.97;;;21.03;;
5959;SDS011;3006;50.956;7.002;2022-12-01T04:48:50;41.73;;;22.87;;
5959;SDS011;3006;50.956;7.002;2022-12-01T04:51:20;46.97;;;23.50;;
5959;SDS011;3006;50.956;7.002;2022-12-01T04:53:50;47.43;;;22.97;;
5959;SDS011;3006;50.956;7.002;2022-12-01T04:56:18;43.10;;;25.63;;
5959;SDS011;3006;50.956;7.002;2022-12-01T04:58:46;42.23;;;24.50;;
5959;SDS011;3006;50.956;7.002;2022-12-01T05:01:15;42.37;;;22.30;;
5959;SDS011;3006;50.956;7.002;2022-12-01T05:03:45;39.27;;;23.03;;
5959;SDS011;3006;50.956;7.002;2022-12-01T05:06:16;42.93;;;23.37;;
5959;SDS011;3006;50.956;7.002;2022-12-01T05:11:43;40.80;;;22.27;;
5959;SDS011;3006;50.956;7.002;2022-12-01T05:14:11;38.60;;;21.57;;
5959;SDS011;3006;50.956;7.002;2022-12-01T05:16:39;37.67;;;22.17;;
5959;SDS011;3006;50.956;7.002;2022-12-01T05:19:07;37.60;;;23.33;;
5959;SDS011;3006;50.956;7.002;2022-12-01T05:21:53;39.67;;;24.00;;
5959;SDS011;3006;50.956;7.002;2022-12-01T05:24:22;40.20;;;22.70;;
5959;SDS011;3006;50.956;7.002;2022-12-01T05:26:50;44.07;;;24.37;;
5959;SDS011;3006;50.956;7.002;2022-12-01T05:29:18;41.33;;;24.10;;
5959;SDS011;3006;50.956;7.002;2022-12-01T05:31:46;48.00;;;25.17;;
5959;SDS011;3006;50.956;7.002;2022-12-01T05:34:14;47.50;;;24.17;;
5959;SDS011;3006;50.956;7.002;2022-12-01T05:36:42;45.43;;;26.17;;
5959;SDS011;3006;50.956;7.002;2022-12-01T05:39:10;44.20;;;25.10;;
5959;SDS011;3006;50.956;7.002;2022-12-01T05:41:40;45.07;;;24.63;;
5959;SDS011;3006;50.956;7.002;2022-12-01T05:44:08;43.00;;;25.10;;
5959;SDS011;3006;50.956;7.002;2022-12-01T05:46:36;49.67;;;26.20;;
5959;SDS011;3006;50.956;7.002;2022-12-01T05:49:04;42.23;;;25.80;;
5959;SDS011;3006;50.956;7.002;2022-12-01T05:51:32;44.07;;;24.27;;
5959;SDS011;3006;50.956;7.002;2022-12-01T05:54:00;49.03;;;24.40;;
5959;SDS011;3006;50.956;7.002;2022-12-01T05:56:28;42.93;;;23.87;;
5959;SDS011;3006;50.956;7.002;2022-12-01T05:58:58;41.10;;;23.67;;
5959;SDS011;3006;50.956;7.002;2022-12-01T06:01:26;39.87;;;23.73;;
5959;SDS011;3006;50.956;7.002;2022-12-01T06:03:54;44.83;;;24.23;;
5959;SDS011;3006;50.956;7.002;2022-12-01T06:06:22;39.67;;;22.63;;
5959;SDS011;3006;50.956;7.002;2022-12-01T06:08:50;38.83;;;22.43;;
5959;SDS011;3006;50.956;7.002;2022-12-01T06:11:18;46.47;;;25.47;;
5959;SDS011;3006;50.956;7.002;2022-12-01T06:13:46;42.40;;;24.47;;
5959;SDS011;3006;50.956;7.002;2022-12-01T06:16:15;41.83;;;22.57;;
5959;SDS011;3006;50.956;7.002;2022-12-01T06:18:43;38.30;;;22.50;;
5959;SDS011;3006;50.956;7.002;2022-12-01T06:21:11;39.57;;;22.20;;
5959;SDS011;3006;50.956;7.002;2022-12-01T06:23:39;36.17;;;21.17;;
5959;SDS011;3006;50.956;7.002;2022-12-01T06:26:07;35.87;;;21.17;;
5959;SDS011;3006;50.956;7.002;2022-12-01T06:28:35;36.60;;;20.50;;
5959;SDS011;3006;50.956;7.002;2022-12-01T06:31:04;31.77;;;19.30;;
5959;SDS011;3006;50.956;7.002;2022-12-01T06:33:33;37.60;;;22.17;;
5959;SDS011;3006;50.956;7.002;2022-12-01T06:36:02;31.47;;;18.67;;
5959;SDS011;3006;50.956;7.002;2022-12-01T06:38:33;31.77;;;20.27;;
5959;SDS011;3006;50.956;7.002;2022-12-01T06:41:02;36.93;;;21.00;;
5959;SDS011;3006;50.956;7.002;2022-12-01T06:43:31;37.00;;;19.90;;
5959;SDS011;3006;50.956;7.002;2022-12-01T06:46:02;35.77;;;20.67;;
5959;SDS011;3006;50.956;7.002;2022-12-01T06:48:31;35.23;;;19.30;;
5959;SDS011;3006;50.956;7.002;2022-12-01T06:51:01;33.87;;;20.00;;
5959;SDS011;3006;50.956;7.002;2022-12-01T06:53:29;35.77;;;19.33;;
5959;SDS011;3006;50.956;7.002;2022-12-01T06:55:58;33.97;;;20.50;;
5959;SDS011;3006;50.956;7.002;2022-12-01T06:58:27;32.63;;;20.60;;
5959;SDS011;3006;50.956;7.002;2022-12-01T07:00:55;33.70;;;19.90;;
5959;SDS011;3006;50.956;7.002;2022-12-01T07:03:24;35.23;;;20.77;;
5959;SDS011;3006;50.956;7.002;2022-12-01T07:05:55;37.63;;;21.00;;
5959;SDS011;3006;50.956;7.002;2022-12-01T07:08:25;34.03;;;19.87;;
5959;SDS011;3006;50.956;7.002;2022-12-01T07:10:57;31.43;;;19.30;;
5959;SDS011;3006;50.956;7.002;2022-12-01T07:13:26;39.07;;;21.57;;
5959;SDS011;3006;50.956;7.002;2022-12-01T07:15:59;38.90;;;21.40;;
5959;SDS011;3006;50.956;7.002;2022-12-01T07:18:28;41.27;;;23.27;;
5959;SDS011;3006;50.956;7.002;2022-12-01T07:20:57;34.27;;;20.87;;
5959;SDS011;3006;50.956;7.002;2022-12-01T07:23:28;40.57;;;21.83;;
5959;SDS011;3006;50.956;7.002;2022-12-01T07:25:57;36.63;;;20.77;;
5959;SDS011;3006;50.956;7.002;2022-12-01T07:28:25;35.33;;;21.47;;
5959;SDS011;3006;50.956;7.002;2022-12-01T07:30:59;41.83;;;23.90;;
5959;SDS011;3006;50.956;7.002;2022-12-01T07:33:28;40.17;;;22.60;;
5959;SDS011;3006;50.956;7.002;2022-12-01T07:35:56;42.20;;;23.23;;
5959;SDS011;3006;50.956;7.002;2022-12-01T07:38:26;44.53;;;22.03;;
5959;SDS011;3006;50.956;7.002;2022-12-01T07:41:01;43.23;;;24.23;;
5959;SDS011;3006;50.956;7.002;2022-12-01T07:43:30;45.70;;;23.50;;
5959;SDS011;3006;50.956;7.002;2022-12-01T07:46:03;43.77;;;25.00;;
5959;SDS011;3006;50.956;7.002;2022-12-01T07:48:32;37.60;;;22.93;;
5959;SDS011;3006;50.956;7.002;2022-12-01T07:51:01;46.77;;;25.80;;
5959;SDS011;3006;50.956;7.002;2022-12-01T07:53:31;51.93;;;27.00;;
5959;SDS011;3006;50.956;7.002;2022-12-01T07:55:59;47.50;;;26.00;;
5959;SDS011;3006;50.956;7.002;2022-12-01T07:58:34;43.13;;;24.87;;
5959;SDS011;3006;50.956;7.002;2022-12-01T08:01:06;49.90;;;25.33;;
5959;SDS011;3006;50.956;7.002;2022-12-01T08:03:35;46.03;;;24.10;;
5959;SDS011;3006;50.956;7.002;2022-12-01T08:06:03;40.63;;;24.73;;
5959;SDS011;3006;50.956;7.002;2022-12-01T08:08:34;39.43;;;23.77;;
5959;SDS011;3006;50.956;7.002;2022-12-01T08:11:04;39.13;;;21.67;;
5959;SDS011;3006;50.956;7.002;2022-12-01T08:13:33;43.00;;;20.70;;
5959;SDS011;3006;50.956;7.002;2022-12-01T08:16:02;39.50;;;20.87;;
5959;SDS011;3006;50.956;7.002;2022-12-01T08:18:32;37.40;;;19.97;;
5959;SDS011;3006;50.956;7.002;2022-12-01T08:21:01;43.87;;;23.70;;
5959;SDS011;3006;50.956;7.002;2022-12-01T08:23:29;41.77;;;24.47;;
5959;SDS011;3006;50.956;7.002;2022-12-01T08:26:00;40.23;;;21.83;;
5959;SDS011;3006;50.956;7.002;2022-12-01T08:28:28;36.93;;;22.30;;
5959;SDS011;3006;50.956;7.002;2022-12-01T08:30:57;36.97;;;21.77;;
5959;SDS011;3006;50.956;7.002;2022-12-01T08:33:25;39.30;;;21.37;;
5959;SDS011;3006;50.956;7.002;2022-12-01T08:35:55;38.80;;;22.57;;
5959;SDS011;3006;50.956;7.002;2022-12-01T08:38:27;35.73;;;20.60;;
5959;SDS011;3006;50.956;7.002;2022-12-01T08:40:58;39.73;;;20.80;;
5959;SDS011;3006;50.956;7.002;2022-12-01T08:43:28;33.60;;;19.23;;
5959;SDS011;3006;50.956;7.002;2022-12-01T08:46:16;32.80;;;20.20;;
5959;SDS011;3006;50.956;7.002;2022-12-01T08:48:45;33.90;;;19.97;;
5959;SDS011;3006;50.956;7.002;2022-12-01T08:51:14;32.80;;;19.27;;
5959;SDS011;3006;50.956;7.002;2022-12-01T08:53:44;29.37;;;18.13;;
5959;SDS011;3006;50.956;7.002;2022-12-01T08:56:16;34.20;;;19.13;;
5959;SDS011;3006;50.956;7.002;2022-12-01T08:58:46;27.83;;;16.73;;
5959;SDS011;3006;50.956;7.002;2022-12-01T09:01:16;33.10;;;18.50;;
5959;SDS011;3006;50.956;7.002;2022-12-01T09:03:45;29.20;;;18.37;;
5959;SDS011;3006;50.956;7.002;2022-12-01T09:06:13;30.17;;;19.30;;
5959;SDS011;3006;50.956;7.002;2022-12-01T09:08:45;30.40;;;17.40;;
5959;SDS011;3006;50.956;7.002;2022-12-01T09:11:14;30.07;;;17.00;;
5959;SDS011;3006;50.956;7.002;2022-12-01T09:13:45;27.80;;;17.43;;
5959;SDS011;3006;50.956;7.002;2022-12-01T09:16:23;25.90;;;16.53;;
5959;SDS011;3006;50.956;7.002;2022-12-01T09:18:51;31.70;;;17.47;;
5959;SDS011;3006;50.956;7.002;2022-12-01T09:21:20;30.40;;;18.33;;
5959;SDS011;3006;50.956;7.002;2022-12-01T09:23:50;34.00;;;22.90;;
5959;SDS011;3006;50.956;7.002;2022-12-01T09:26:20;28.00;;;18.47;;
5959;SDS011;3006;50.956;7.002;2022-12-01T09:28:49;33.40;;;19.03;;
5959;SDS011;3006;50.956;7.002;2022-12-01T09:31:19;28.17;;;18.30;;
5959;SDS011;3006;50.956;7.002;2022-12-01T09:33:52;35.37;;;18.30;;
5959;SDS011;3006;50.956;7.002;2022-12-01T09:36:21;27.83;;;17.97;;
5959;SDS011;3006;50.956;7.002;2022-12-01T09:38:49;29.03;;;17.10;;
5959;SDS011;3006;50.956;7.002;2022-12-01T09:41:19;30.97;;;19.00;;
5959;SDS011;3006;50.956;7.002;2022-12-01T09:43:52;32.17;;;18.90;;
5959;SDS011;3006;50.956;7.002;2022-12-01T09:46:25;28.17;;;17.10;;
5959;SDS011;3006;50.956;7.002;2022-12-01T09:48:58;30.50;;;17.10;;
5959;SDS011;3006;50.956;7.002;2022-12-01T09:51:29;28.90;;;17.60;;
5959;SDS011;3006;50.956;7.002;2022-12-01T09:54:01;26.20;;;16.60;;
5959;SDS011;3006;50.956;7.002;2022-12-01T09:56:37;28.43;;;16.80;;
5959;SDS011;3006;50.956;7.002;2022-12-01T09:59:12;32.90;;;20.50;;
5959;SDS011;3006;50.956;7.002;2022-12-01T10:01:45;29.77;;;17.73;;
5959;SDS011;3006;50.956;7.002;2022-12-01T10:04:18;39.57;;;24.00;;
5959;SDS011;3006;50.956;7.002;2022-12-01T10:06:53;89.30;;;55.00;;
5959;SDS011;3006;50.956;7.002;2022-12-01T10:09:26;28.80;;;19.30;;
5959;SDS011;3006;50.956;7.002;2022-12-01T10:12:03;25.67;;;16.10;;
5959;SDS011;3006;50.956;7.002;2022-12-01T10:14:37;22.40;;;14.83;;
5959;SDS011;3006;50.956;7.002;2022-12-01T10:17:08;25.70;;;16.63;;
5959;SDS011;3006;50.956;7.002;2022-12-01T10:19:46;22.40;;;14.33;;
5959;SDS011;3006;50.956;7.002;2022-12-01T10:22:30;25.40;;;16.53;;
5959;SDS011;3006;50.956;7.002;2022-12-01T10:25:17;24.33;;;16.40;;
5959;SDS011;3006;50.956;7.002;2022-12-01T10:27:53;48.30;;;32.20;;
5959;SDS011;3006;50.956;7.002;2022-12-01T10:30:39;60.20;;;40.90;;
5959;SDS011;3006;50.956;7.002;2022-12-01T10:33:17;24.07;;;15.73;;
5959;SDS011;3006;50.956;7.002;2022-12-01T10:35:49;24.40;;;16.40;;
5959;SDS011;3006;50.956;7.002;2022-12-01T10:38:21;23.80;;;15.40;;
5959;SDS011;3006;50.956;7.002;2022-12-01T10:40:52;22.63;;;14.07;;
5959;SDS011;3006;50.956;7.002;2022-12-01T10:43:27;19.97;;;13.30;;
5959;SDS011;3006;50.956;7.002;2022-12-01T10:45:59;22.13;;;14.03;;
5959;SDS011;3006;50.956;7.002;2022-12-01T10:48:32;24.00;;;15.37;;
5959;SDS011;3006;50.956;7.002;2022-12-01T10:51:17;19.80;;;12.60;;
5959;SDS011;3006;50.956;7.002;2022-12-01T10:53:48;20.70;;;12.17;;
5959;SDS011;3006;50.956;7.002;2022-12-01T10:56:16;22.27;;;14.80;;
5959;SDS011;3006;50.956;7.002;2022-12-01T10:58:48;45.13;;;30.00;;
5959;SDS011;3006;50.956;7.002;2022-12-01T11:01:20;23.87;;;14.43;;
5959;SDS011;3006;50.956;7.002;2022-12-01T11:03:51;19.00;;;12.07;;
5959;SDS011;3006;50.956;7.002;2022-12-01T11:06:24;18.37;;;10.80;;
5959;SDS011;3006;50.956;7.002;2022-12-01T11:08:55;18.10;;;11.80;;
5959;SDS011;3006;50.956;7.002;2022-12-01T11:11:27;16.93;;;11.00;;
5959;SDS011;3006;50.956;7.002;2022-12-01T11:13:59;16.70;;;10.37;;
5959;SDS011;3006;50.956;7.002;2022-12-01T11:16:39;19.47;;;11.43;;
5959;SDS011;3006;50.956;7.002;2022-12-01T11:19:16;17.13;;;11.03;;
5959;SDS011;3006;50.956;7.002;2022-12-01T11:21:53;43.67;;;31.07;;
5959;SDS011;3006;50.956;7.002;2022-12-01T11:24:29;18.03;;;11.80;;
5959;SDS011;3006;50.956;7.002;2022-12-01T11:27:13;15.47;;;10.47;;
5959;SDS011;3006;50.956;7.002;2022-12-01T11:29:46;16.90;;;11.37;;
5959;SDS011;3006;50.956;7.002;2022-12-01T11:32:18;17.90;;;10.77;;
5959;SDS011;3006;50.956;7.002;2022-12-01T11:34:49;19.47;;;12.50;;
5959;SDS011;3006;50.956;7.002;2022-12-01T11:37:20;17.23;;;12.17;;
5959;SDS011;3006;50.956;7.002;2022-12-01T11:39:50;18.90;;;12.63;;
5959;SDS011;3006;50.956;7.002;2022-12-01T11:42:20;20.87;;;12.73;;
5959;SDS011;3006;50.956;7.002;2022-12-01T11:44:53;23.30;;;13.60;;
5959;SDS011;3006;50.956;7.002;2022-12-01T11:47:28;26.13;;;14.43;;
5959;SDS011;3006;50.956;7.002;2022-12-01T11:49:57;26.20;;;16.47;;
5959;SDS011;3006;50.956;7.002;2022-12-01T11:52:27;29.70;;;15.63;;
5959;SDS011;3006;50.956;7.002;2022-12-01T11:54:58;25.90;;;15.50;;
5959;SDS011;3006;50.956;7.002;2022-12-01T11:57:35;24.40;;;16.23;;
5959;SDS011;3006;50.956;7.002;2022-12-01T12:00:13;28.73;;;17.83;;
5959;SDS011;3006;50.956;7.002;2022-12-01T12:02:44;30.50;;;18.50;;
5959;SDS011;3006;50.956;7.002;2022-12-01T12:05:36;27.73;;;18.23;;
5959;SDS011;3006;50.956;7.002;2022-12-01T12:08:14;33.13;;;19.43;;
5959;SDS011;3006;50.956;7.002;2022-12-01T12:10:54;33.97;;;21.20;;
5959;SDS011;3006;50.956;7.002;2022-12-01T12:13:34;34.90;;;19.60;;
5959;SDS011;3006;50.956;7.002;2022-12-01T12:16:17;33.03;;;21.37;;
5959;SDS011;3006;50.956;7.002;2022-12-01T12:19:01;32.63;;;20.40;;
5959;SDS011;3006;50.956;7.002;2022-12-01T12:21:41;34.43;;;19.73;;
5959;SDS011;3006;50.956;7.002;2022-12-01T12:24:21;33.53;;;19.87;;
5959;SDS011;3006;50.956;7.002;2022-12-01T12:27:05;34.23;;;19.83;;
5959;SDS011;3006;50.956;7.002;2022-12-01T12:29:45;37.20;;;23.23;;
5959;SDS011;3006;50.956;7.002;2022-12-01T12:32:31;35.33;;;21.23;;
5959;SDS011;3006;50.956;7.002;2022-12-01T12:35:15;31.40;;;19.23;;
5959;SDS011;3006;50.956;7.002;2022-12-01T12:37:53;30.47;;;18.03;;
5959;SDS011;3006;50.956;7.002;2022-12-01T12:40:35;31.67;;;18.87;;
5959;SDS011;3006;50.956;7.002;2022-12-01T12:46:03;37.43;;;22.17;;
5959;SDS011;3006;50.956;7.002;2022-12-01T12:48:42;37.73;;;22.67;;
5959;SDS011;3006;50.956;7.002;2022-12-01T12:51:44;35.87;;;23.00;;
5959;SDS011;3006;50.956;7.002;2022-12-01T12:54:19;36.27;;;23.17;;
5959;SDS011;3006;50.956;7.002;2022-12-01T12:56:54;44.13;;;24.20;;
5959;SDS011;3006;50.956;7.002;2022-12-01T12:59:28;46.13;;;23.83;;
5959;SDS011;3006;50.956;7.002;2022-12-01T13:02:01;46.40;;;24.90;;
5959;SDS011;3006;50.956;7.002;2022-12-01T13:04:37;40.77;;;21.93;;
5959;SDS011;3006;50.956;7.002;2022-12-01T13:07:11;49.17;;;27.67;;
5959;SDS011;3006;50.956;7.002;2022-12-01T13:09:47;45.70;;;23.43;;
5959;SDS011;3006;50.956;7.002;2022-12-01T13:12:21;38.97;;;22.77;;
5959;SDS011;3006;50.956;7.002;2022-12-01T13:14:54;42.87;;;23.73;;
5959;SDS011;3006;50.956;7.002;2022-12-01T13:17:27;35.47;;;22.17;;
5959;SDS011;3006;50.956;7.002;2022-12-01T13:20:01;43.90;;;23.43;;
5959;SDS011;3006;50.956;7.002;2022-12-01T13:22:31;36.67;;;22.83;;
5959;SDS011;3006;50.956;7.002;2022-12-01T13:25:01;35.30;;;22.13;;
5959;SDS011;3006;50.956;7.002;2022-12-01T13:27:30;38.93;;;24.10;;
5959;SDS011;3006;50.956;7.002;2022-12-01T13:30:01;44.83;;;25.63;;
5959;SDS011;3006;50.956;7.002;2022-12-01T13:32:31;45.33;;;25.53;;
5959;SDS011;3006;50.956;7.002;2022-12-01T13:35:04;44.80;;;26.50;;
5959;SDS011;3006;50.956;7.002;2022-12-01T13:37:47;43.20;;;23.57;;
5959;SDS011;3006;50.956;7.002;2022-12-01T13:40:18;44.60;;;24.60;;
5959;SDS011;3006;50.956;7.002;2022-12-01T13:42:55;48.10;;;27.00;;
5959;SDS011;3006;50.956;7.002;2022-12-01T13:45:34;38.17;;;23.57;;
5959;SDS011;3006;50.956;7.002;2022-12-01T13:48:04;41.83;;;24.63;;
5959;SDS011;3006;50.956;7.002;2022-12-01T13:50:54;46.93;;;26.93;;
5959;SDS011;3006;50.956;7.002;2022-12-01T13:53:25;39.50;;;23.93;;
5959;SDS011;3006;50.956;7.002;2022-12-01T13:55:59;42.67;;;24.60;;
5959;SDS011;3006;50.956;7.002;2022-12-01T13:58:40;43.13;;;24.70;;
5959;SDS011;3006;50.956;7.002;2022-12-01T14:07:13;43.00;;;27.40;;
5959;SDS011;3006;50.956;7.002;2022-12-01T14:12:53;51.10;;;27.10;;
5959;SDS011;3006;50.956;7.002;2022-12-01T14:15:37;45.97;;;25.57;;
5959;SDS011;3006;50.956;7.002;2022-12-01T14:18:18;44.90;;;26.43;;
5959;SDS011;3006;50.956;7.002;2022-12-01T14:21:00;43.33;;;24.03;;
5959;SDS011;3006;50.956;7.002;2022-12-01T14:23:32;42.43;;;26.03;;
5959;SDS011;3006;50.956;7.002;2022-12-01T14:26:11;44.17;;;25.10;;
5959;SDS011;3006;50.956;7.002;2022-12-01T14:35:09;40.90;;;24.97;;
5959;SDS011;3006;50.956;7.002;2022-12-01T14:37:43;36.07;;;23.40;;
5959;SDS011;3006;50.956;7.002;2022-12-01T14:40:23;34.90;;;22.37;;
5959;SDS011;3006;50.956;7.002;2022-12-01T14:42:55;38.57;;;23.53;;
5959;SDS011;3006;50.956;7.002;2022-12-01T14:45:48;38.70;;;24.27;;
5959;SDS011;3006;50.956;7.002;2022-12-01T14:48:23;39.97;;;23.80;;
5959;SDS011;3006;50.956;7.002;2022-12-01T14:51:01;79.97;;;46.53;;
5959;SDS011;3006;50.956;7.002;2022-12-01T14:53:42;41.57;;;26.00;;
5959;SDS011;3006;50.956;7.002;2022-12-01T14:56:15;42.53;;;24.50;;
5959;SDS011;3006;50.956;7.002;2022-12-01T14:58:52;38.83;;;24.30;;
5959;SDS011;3006;50.956;7.002;2022-12-01T15:01:22;47.40;;;28.50;;
5959;SDS011;3006;50.956;7.002;2022-12-01T15:03:53;44.13;;;27.50;;
5959;SDS011;3006;50.956;7.002;2022-12-01T15:06:24;50.30;;;28.23;;
5959;SDS011;3006;50.956;7.002;2022-12-01T15:09:04;53.30;;;29.50;;
5959;SDS011;3006;50.956;7.002;2022-12-01T15:11:56;43.60;;;27.27;;
5959;SDS011;3006;50.956;7.002;2022-12-01T15:14:30;50.63;;;26.40;;
5959;SDS011;3006;50.956;7.002;2022-12-01T15:16:59;41.97;;;25.30;;
5959;SDS011;3006;50.956;7.002;2022-12-01T15:19:31;42.10;;;25.37;;
5959;SDS011;3006;50.956;7.002;2022-12-01T15:22:03;44.40;;;24.20;;
5959;SDS011;3006;50.956;7.002;2022-12-01T15:24:32;35.30;;;22.33;;
5959;SDS011;3006;50.956;7.002;2022-12-01T15:27:02;35.73;;;21.33;;
5959;SDS011;3006;50.956;7.002;2022-12-01T15:29:32;37.37;;;22.00;;
5959;SDS011;3006;50.956;7.002;2022-12-01T15:32:13;50.60;;;27.57;;
5959;SDS011;3006;50.956;7.002;2022-12-01T15:34:45;72.90;;;47.60;;
5959;SDS011;3006;50.956;7.002;2022-12-01T15:37:16;37.07;;;22.03;;
5959;SDS011;3006;50.956;7.002;2022-12-01T15:39:46;33.30;;;21.07;;
5959;SDS011;3006;50.956;7.002;2022-12-01T15:42:20;34.40;;;21.63;;
5959;SDS011;3006;50.956;7.002;2022-12-01T15:44:55;42.20;;;24.00;;
5959;SDS011;3006;50.956;7.002;2022-12-01T15:47:30;39.47;;;23.77;;